Time;durP1;ratioP1;P1;durP2;ratioP2;P2;SDS_P1;SDS_P2;PMS_P1;PMS_P2;Temp;Humidity;BMP_temperature;BMP_pressure;BME280_temperature;BME280_humidity;BME280_pressure;Samples;Min_cycle;Max_cycle;Signal;HPM_P1;HPM_P2
2022/06/13 00:01:33;;;;;;;14.57;7.20;;;13.60;99.90;;;;;;5010972;28;20053;-85
2022/06/13 00:04:00;;;;;;;13.77;6.70;;;13.60;99.90;;;;;;5009848;28;20046;-85
2022/06/13 00:06:26;;;;;;;16.45;7.28;;;13.60;99.90;;;;;;5016574;28;20042;-86
2022/06/13 00:08:52;;;;;;;12.45;7.10;;;13.60;99.90;;;;;;4994767;28;20242;-85
2022/06/13 00:11:21;;;;;;;14.05;7.25;;;13.60;99.90;;;;;;5009864;28;20836;-85
2022/06/13 00:13:50;;;;;;;14.50;7.00;;;13.60;99.90;;;;;;5010434;28;20042;-86
2022/06/13 00:16:16;;;;;;;13.63;7.15;;;13.60;99.90;;;;;;5009534;28;20049;-86
2022/06/13 00:18:47;;;;;;;13.45;8.18;;;13.60;99.90;;;;;;5026936;28;20044;-86
2022/06/13 00:21:19;;;;;;;12.77;7.55;;;13.60;99.90;;;;;;5028939;28;20056;-86
2022/06/13 00:23:45;;;;;;;14.88;8.10;;;13.60;99.90;;;;;;5010219;28;20098;-86
2022/06/13 00:26:10;;;;;;;13.38;8.20;;;13.60;99.90;;;;;;5027603;28;20468;-86
2022/06/13 00:28:36;;;;;;;11.88;7.38;;;13.60;99.90;;;;;;5009693;28;20073;-85
2022/06/13 00:31:02;;;;;;;14.20;8.55;;;13.60;99.90;;;;;;4998618;28;20045;-86
2022/06/13 00:33:27;;;;;;;14.48;8.07;;;13.60;99.90;;;;;;5008887;28;20053;-85
2022/06/13 00:35:53;;;;;;;12.93;7.50;;;13.60;99.90;;;;;;5009437;28;20390;-85
2022/06/13 00:38:18;;;;;;;14.32;8.00;;;13.60;99.90;;;;;;5010062;28;20146;-85
2022/06/13 00:40:44;;;;;;;14.02;7.32;;;13.60;99.90;;;;;;5010126;28;20486;-86
2022/06/13 00:43:13;;;;;;;13.68;6.88;;;13.60;99.90;;;;;;5009690;28;20045;-86
2022/06/13 00:45:39;;;;;;;13.77;6.90;;;13.60;99.90;;;;;;4991914;28;20602;-86
2022/06/13 00:48:05;;;;;;;15.65;7.22;;;13.60;99.90;;;;;;5012444;28;20050;-85
2022/06/13 00:50:35;;;;;;;13.30;6.35;;;13.60;99.90;;;;;;5027944;28;20123;-86
2022/06/13 00:53:08;;;;;;;12.70;6.80;;;13.60;99.90;;;;;;5026410;28;20042;-85
2022/06/13 00:55:43;;;;;;;11.88;6.28;;;13.70;99.90;;;;;;5027861;28;20052;-85
2022/06/13 00:58:11;;;;;;;12.30;6.45;;;13.60;99.90;;;;;;5026995;28;20042;-86
2022/06/13 01:00:36;;;;;;;13.07;6.43;;;13.70;99.90;;;;;;5025766;28;20116;-85
2022/06/13 01:03:04;;;;;;;16.40;7.00;;;13.70;99.90;;;;;;5026272;28;20140;-85
2022/06/13 01:05:35;;;;;;;12.35;6.20;;;13.70;99.90;;;;;;5016705;28;20554;-86
2022/06/13 01:08:03;;;;;;;12.32;6.00;;;13.60;99.90;;;;;;5009511;28;20128;-85
2022/06/13 01:13:15;;;;;;;12.82;6.15;;;13.70;99.90;;;;;;5007590;28;20071;-86
2022/06/13 01:16:00;;;;;;;13.52;6.07;;;13.60;99.90;;;;;;5009242;28;20049;-85
2022/06/13 01:18:46;;;;;;;16.55;6.13;;;13.70;99.90;;;;;;5026163;28;20048;-85
2022/06/13 01:21:31;;;;;;;15.25;6.93;;;13.60;99.90;;;;;;5009365;28;20059;-85
2022/06/13 01:24:36;;;;;;;13.88;6.85;;;13.60;99.90;;;;;;5025780;28;20164;-85
2022/06/13 01:27:19;;;;;;;11.52;6.18;;;13.60;99.90;;;;;;5008811;28;20088;-85
2022/06/13 01:29:50;;;;;;;12.52;6.50;;;13.60;99.90;;;;;;5025787;28;20071;-85
2022/06/13 01:32:28;;;;;;;13.63;6.03;;;13.60;99.90;;;;;;4996770;28;20052;-86
2022/06/13 01:35:08;;;;;;;15.07;6.95;;;13.60;99.90;;;;;;5018592;28;20135;-86
2022/06/13 01:37:57;;;;;;;13.32;6.40;;;13.60;99.90;;;;;;5008919;28;20045;-85
2022/06/13 01:40:44;;;;;;;13.73;6.32;;;13.60;99.90;;;;;;5008752;28;20049;-86
2022/06/13 01:43:25;;;;;;;12.18;6.40;;;13.70;99.90;;;;;;5000952;28;20354;-85
2022/06/13 01:46:13;;;;;;;14.00;6.55;;;13.60;99.90;;;;;;5006553;28;20059;-85
2022/06/13 01:49:09;;;;;;;15.20;6.57;;;13.60;99.90;;;;;;5007912;28;20088;-84
2022/06/13 01:52:03;;;;;;;13.00;6.63;;;13.60;99.90;;;;;;5008999;28;20057;-85
2022/06/13 01:54:47;;;;;;;14.55;6.85;;;13.60;99.90;;;;;;5026061;28;20540;-86
2022/06/13 01:57:36;;;;;;;14.05;7.13;;;13.60;99.90;;;;;;5007927;28;20115;-85
2022/06/13 02:00:10;;;;;;;12.90;7.38;;;13.70;99.90;;;;;;5011299;28;20188;-85
2022/06/13 02:02:47;;;;;;;14.75;7.45;;;13.70;99.90;;;;;;5024428;28;20045;-85
2022/06/13 02:05:41;;;;;;;15.82;7.68;;;13.70;99.90;;;;;;5008672;28;20045;-85
2022/06/13 02:08:13;;;;;;;14.52;7.93;;;13.70;99.90;;;;;;5008738;28;20048;-85
2022/06/13 02:10:43;;;;;;;17.80;8.05;;;13.70;99.90;;;;;;5025836;28;20052;-85
2022/06/13 02:13:17;;;;;;;15.70;8.60;;;13.70;99.90;;;;;;5028739;28;20120;-85
2022/06/13 02:15:49;;;;;;;16.20;8.63;;;13.70;99.90;;;;;;5005884;28;20134;-85
2022/06/13 02:18:25;;;;;;;15.65;8.32;;;13.70;99.90;;;;;;5008008;28;20042;-85
2022/06/13 02:20:56;;;;;;;14.52;7.95;;;13.70;99.90;;;;;;5026856;28;20041;-85
2022/06/13 02:23:27;;;;;;;14.13;8.93;;;13.70;99.90;;;;;;5007211;28;20040;-85
2022/06/13 02:25:56;;;;;;;;;;;13.70;99.90;;;;;;5007316;28;20045;-85
2022/06/13 02:28:28;;;;;;;15.55;9.27;;;13.60;99.90;;;;;;4999673;28;19979;-84
2022/06/13 02:31:06;;;;;;;16.25;8.77;;;13.70;99.90;;;;;;5007171;28;20132;-85
2022/06/13 02:33:40;;;;;;;15.88;9.10;;;13.60;99.90;;;;;;5007753;28;20095;-85
2022/06/13 02:36:15;;;;;;;16.85;9.50;;;13.70;99.90;;;;;;5008162;28;20126;-85
2022/06/13 02:38:51;;;;;;;16.83;9.20;;;13.70;99.90;;;;;;5006917;28;20053;-84
2022/06/13 02:41:20;;;;;;;16.73;9.40;;;13.60;99.90;;;;;;4991349;28;20056;-84
2022/06/13 02:43:58;;;;;;;16.73;9.13;;;13.60;99.90;;;;;;5007690;28;20430;-84
2022/06/13 02:46:30;;;;;;;18.40;9.75;;;13.60;99.90;;;;;;5023858;28;20046;-85
2022/06/13 02:49:29;;;;;;;17.90;9.80;;;13.60;99.90;;;;;;5025244;28;20083;-85
2022/06/13 02:52:07;;;;;;;16.65;10.10;;;13.60;99.90;;;;;;4989716;28;20053;-85
2022/06/13 02:54:40;;;;;;;16.90;9.52;;;13.60;99.90;;;;;;5025655;28;20045;-85
2022/06/13 02:57:27;;;;;;;17.13;10.45;;;13.60;99.90;;;;;;5027670;28;20481;-84
2022/06/13 03:00:14;;;;;;;17.77;9.88;;;13.60;99.90;;;;;;5006643;28;20389;-85
2022/06/13 03:02:47;;;;;;;17.65;10.55;;;13.60;99.90;;;;;;5006654;28;20401;-85
2022/06/13 03:05:22;;;;;;;18.85;10.40;;;13.50;99.90;;;;;;5004200;28;20049;-85
2022/06/13 03:08:14;;;;;;;16.85;10.73;;;13.60;99.90;;;;;;5026088;28;20124;-84
2022/06/13 03:10:51;;;;;;;17.08;10.32;;;13.50;99.90;;;;;;5002438;28;20054;-85
2022/06/13 03:13:56;;;;;;;18.67;9.95;;;13.50;99.90;;;;;;5005128;28;20056;-85
2022/06/13 03:16:36;;;;;;;18.50;10.30;;;13.50;99.90;;;;;;4990469;28;20387;-85
2022/06/13 03:19:33;;;;;;;16.30;9.57;;;13.50;99.90;;;;;;5007687;28;20042;-85
2022/06/13 03:22:08;;;;;;;15.55;10.05;;;13.50;99.90;;;;;;5026123;28;20045;-84
2022/06/13 03:24:45;;;;;;;17.98;9.63;;;13.50;99.90;;;;;;5007026;28;20441;-85
2022/06/13 03:27:23;;;;;;;17.63;9.20;;;13.50;99.90;;;;;;5028453;28;20064;-85
2022/06/13 03:29:55;;;;;;;15.32;9.45;;;13.50;99.90;;;;;;5025362;28;20401;-84
2022/06/13 03:32:28;;;;;;;16.00;9.38;;;13.50;99.90;;;;;;4990388;28;20080;-85
2022/06/13 03:34:58;;;;;;;15.60;8.77;;;13.50;99.90;;;;;;5006883;28;20038;-84
2022/06/13 03:37:40;;;;;;;16.20;9.32;;;13.50;99.90;;;;;;4990528;28;20065;-85
2022/06/13 03:40:15;;;;;;;15.90;9.80;;;13.50;99.90;;;;;;5008846;28;20080;-83
2022/06/13 03:42:46;;;;;;;17.95;9.68;;;13.50;99.90;;;;;;5024703;28;20045;-85
2022/06/13 03:45:22;;;;;;;18.40;9.65;;;13.50;99.90;;;;;;5007560;28;20037;-85
2022/06/13 03:47:56;;;;;;;16.30;9.27;;;13.60;99.90;;;;;;5006515;28;20041;-85
2022/06/13 03:50:36;;;;;;;16.77;9.93;;;13.60;99.90;;;;;;4990174;28;20045;-85
2022/06/13 03:53:25;;;;;;;18.33;9.02;;;13.60;99.90;;;;;;5021900;28;20046;-85
2022/06/13 03:56:05;;;;;;;19.02;9.52;;;13.60;99.90;;;;;;4990521;28;20128;-84
2022/06/13 03:58:36;;;;;;;17.92;9.60;;;13.60;99.90;;;;;;5007190;28;20546;-84
2022/06/13 04:01:08;;;;;;;;;;;13.60;99.90;;;;;;5007105;28;20048;-85
2022/06/13 04:03:34;;;;;;;16.08;8.15;;;13.50;99.90;;;;;;5007039;28;19936;-84
2022/06/13 04:06:06;;;;;;;16.75;8.25;;;13.60;99.90;;;;;;5006128;28;20092;-85
2022/06/13 04:08:35;;;;;;;14.40;7.60;;;13.70;99.90;;;;;;5023942;28;20065;-84
2022/06/13 04:11:37;;;;;;;18.27;7.65;;;13.70;99.90;;;;;;5028256;28;20049;-85
2022/06/13 04:14:40;;;;;;;16.90;8.30;;;13.70;99.90;;;;;;5011283;28;20441;-85
2022/06/13 04:17:22;;;;;;;13.77;7.45;;;13.80;99.90;;;;;;5008774;28;20041;-84
2022/06/13 04:20:22;;;;;;;13.48;7.18;;;13.80;99.90;;;;;;5010750;28;20076;-83
2022/06/13 04:22:49;;;;;;;12.55;6.47;;;13.80;99.90;;;;;;4992506;28;20084;-83
2022/06/13 04:25:23;;;;;;;14.02;6.65;;;13.80;99.90;;;;;;5013057;28;20048;-84
2022/06/13 04:28:13;;;;;;;15.40;7.28;;;13.90;99.90;;;;;;5008755;28;20045;-88
2022/06/13 04:30:41;;;;;;;13.70;6.65;;;13.90;99.90;;;;;;5007524;28;20045;-85
2022/06/13 04:33:17;;;;;;;16.83;7.28;;;13.90;99.90;;;;;;5009315;28;20438;-85
2022/06/13 04:35:46;;;;;;;12.95;6.75;;;13.90;99.90;;;;;;5007779;28;20064;-86
2022/06/13 04:38:15;;;;;;;14.00;6.78;;;14.00;99.90;;;;;;5010167;28;20049;-86
2022/06/13 04:40:45;;;;;;;12.05;6.97;;;14.00;99.90;;;;;;4998434;28;20080;-86
2022/06/13 04:43:14;;;;;;;14.80;8.00;;;14.00;99.90;;;;;;5023421;28;20045;-84
2022/06/13 04:45:58;;;;;;;16.05;8.10;;;14.00;99.90;;;;;;5027221;28;20134;-84
2022/06/13 04:48:25;;;;;;;14.77;7.82;;;14.10;99.90;;;;;;5005627;28;20045;-85
2022/06/13 04:50:54;;;;;;;13.40;8.25;;;14.20;99.90;;;;;;5028116;28;20050;-87
2022/06/13 04:53:34;;;;;;;14.15;7.55;;;14.20;99.90;;;;;;5029817;28;20554;-86
2022/06/13 04:56:00;;;;;;;15.25;7.88;;;14.30;99.90;;;;;;5006666;28;20054;-85
2022/06/13 04:58:30;;;;;;;16.25;7.63;;;14.40;99.90;;;;;;5008395;28;20041;-85
2022/06/13 05:01:01;;;;;;;14.02;7.78;;;14.40;99.90;;;;;;5009594;28;20039;-85
2022/06/13 05:03:29;;;;;;;;;;;14.50;99.90;;;;;;5027516;28;20063;-84
2022/06/13 05:05:58;;;;;;;14.00;7.22;;;14.50;99.90;;;;;;5009214;28;20007;-85
2022/06/13 05:08:27;;;;;;;14.77;7.20;;;14.50;99.90;;;;;;5008812;28;20041;-85
2022/06/13 05:11:01;;;;;;;14.48;6.57;;;14.60;99.90;;;;;;4992011;28;20115;-85
2022/06/13 05:13:27;;;;;;;13.93;6.30;;;14.70;99.90;;;;;;5005830;28;20050;-85
2022/06/13 05:16:10;;;;;;;13.60;5.80;;;14.70;99.90;;;;;;5007055;28;20041;-85
2022/06/13 05:19:11;;;;;;;13.18;6.15;;;14.80;99.90;;;;;;5024476;28;20393;-85
2022/06/13 05:22:14;;;;;;;11.95;5.32;;;14.90;99.90;;;;;;4963448;28;20055;-84
2022/06/13 05:25:08;;;;;;;11.25;5.10;;;15.00;99.90;;;;;;4965658;28;20487;-83
2022/06/13 05:27:33;;;;;;;10.65;4.43;;;15.10;99.90;;;;;;4964926;28;20454;-84
2022/06/13 05:29:59;;;;;;;10.23;5.03;;;15.20;99.90;;;;;;4950568;28;20058;-84
2022/06/13 05:32:25;;;;;;;8.15;4.20;;;15.30;99.90;;;;;;4964397;28;20050;-82
2022/06/13 05:34:52;;;;;;;10.23;4.30;;;15.30;99.90;;;;;;4949538;28;20046;-83
2022/06/13 05:37:18;;;;;;;10.65;4.55;;;15.40;99.90;;;;;;4965368;28;20082;-83
2022/06/13 05:39:45;;;;;;;10.63;3.90;;;15.40;99.90;;;;;;4949815;28;20471;-83
2022/06/13 05:42:12;;;;;;;12.18;4.65;;;15.50;99.90;;;;;;4970698;28;20082;-83
2022/06/13 05:44:38;;;;;;;12.40;4.55;;;15.50;99.90;;;;;;4972781;28;20127;-84
2022/06/13 05:47:04;;;;;;;10.25;4.13;;;15.60;99.90;;;;;;4969903;28;20049;-84
2022/06/13 05:49:30;;;;;;;11.43;4.07;;;15.60;99.90;;;;;;4956018;28;20042;-85
2022/06/13 05:51:55;;;;;;;8.73;4.45;;;15.70;99.90;;;;;;4957668;28;20065;-85
2022/06/13 05:54:21;;;;;;;11.52;4.45;;;15.80;99.90;;;;;;4956794;28;20050;-83
2022/06/13 05:56:47;;;;;;;10.25;4.38;;;15.90;99.90;;;;;;4957981;28;20120;-82
2022/06/13 05:59:12;;;;;;;12.48;3.80;;;16.00;99.90;;;;;;5019399;28;20056;-82
2022/06/13 06:01:38;;;;;;;10.98;3.60;;;16.10;99.90;;;;;;5032274;28;20482;-82
2022/06/13 06:04:04;;;;;;;10.88;4.03;;;16.20;99.90;;;;;;5015236;28;20049;-83
2022/06/13 06:06:32;;;;;;;10.43;4.20;;;16.30;99.90;;;;;;5014406;28;20049;-85
2022/06/13 06:08:58;;;;;;;10.93;3.70;;;16.30;99.90;;;;;;5014828;28;20045;-89
2022/06/13 06:11:25;;;;;;;8.95;3.25;;;16.30;99.90;;;;;;5013024;28;20046;-88
2022/06/13 06:13:51;;;;;;;10.10;3.70;;;16.30;99.90;;;;;;4991936;28;20123;-89
2022/06/13 06:16:20;;;;;;;8.75;3.35;;;16.50;99.90;;;;;;5007892;28;20049;-91
2022/06/13 06:18:47;;;;;;;9.82;3.17;;;16.50;99.90;;;;;;5004514;28;20045;-84
2022/06/13 06:21:13;;;;;;;10.70;2.88;;;16.40;99.90;;;;;;5007589;28;20045;-88
2022/06/13 06:23:38;;;;;;;8.80;2.75;;;16.40;99.90;;;;;;5024729;28;20065;-88
2022/06/13 06:26:06;;;;;;;10.07;2.53;;;16.30;99.90;;;;;;5008223;28;20136;-88
2022/06/13 06:28:33;;;;;;;8.10;2.38;;;16.20;99.90;;;;;;5007268;28;20482;-89
2022/06/13 06:30:59;;;;;;;8.18;2.58;;;16.30;99.90;;;;;;5008554;28;20052;-85
2022/06/13 06:33:27;;;;;;;7.68;2.63;;;16.20;99.90;;;;;;4988802;28;20050;-88
2022/06/13 06:35:54;;;;;;;8.82;2.50;;;16.20;99.90;;;;;;5008394;28;20052;-89
2022/06/13 06:38:21;;;;;;;7.22;2.50;;;16.10;99.90;;;;;;5007650;28;20076;-88
2022/06/13 06:40:48;;;;;;;7.53;2.28;;;16.20;99.90;;;;;;5012499;28;20046;-90
2022/06/13 06:43:14;;;;;;;8.23;2.55;;;16.10;99.90;;;;;;5034504;28;20076;-90
2022/06/13 06:45:41;;;;;;;7.82;2.38;;;16.10;99.90;;;;;;5017313;28;20049;-90
2022/06/13 06:48:15;;;;;;;6.38;2.20;;;16.00;99.90;;;;;;4999272;28;20034;-91
2022/06/13 06:50:43;;;;;;;7.93;2.20;;;16.00;99.90;;;;;;5014540;28;20041;-90
2022/06/13 06:53:10;;;;;;;7.75;2.70;;;15.90;99.90;;;;;;5017563;28;20037;-92
2022/06/13 07:01:08;;;;;;;6.88;2.10;;;16.30;99.90;;;;;;5030760;28;20056;-90
2022/06/13 07:03:34;;;;;;;8.73;2.53;;;16.40;99.90;;;;;;5018499;28;20121;-90
2022/06/13 07:06:00;;;;;;;7.07;2.20;;;16.40;99.90;;;;;;5016108;28;20092;-87
2022/06/13 07:08:27;;;;;;;5.53;1.75;;;16.60;99.90;;;;;;5017356;28;20370;-88
2022/06/13 07:10:53;;;;;;;7.22;2.10;;;16.60;99.90;;;;;;4994865;28;20478;-88
2022/06/13 07:13:20;;;;;;;9.10;2.58;;;16.50;99.90;;;;;;5025957;28;20037;-86
2022/06/13 07:15:48;;;;;;;8.00;2.30;;;16.40;99.90;;;;;;5004292;28;20099;-83
2022/06/13 07:18:13;;;;;;;8.57;2.35;;;16.20;99.90;;;;;;5020499;28;20482;-83
2022/06/13 07:20:39;;;;;;;8.38;1.95;;;15.90;99.90;;;;;;5006795;28;20048;-83
2022/06/13 07:23:05;;;;;;;7.07;1.77;;;15.80;99.90;;;;;;5025666;28;20041;-83
2022/06/13 07:25:32;;;;;;;5.55;1.35;;;15.70;99.90;;;;;;5006657;28;20057;-83
2022/06/13 07:27:58;;;;;;;5.40;1.50;;;15.60;99.90;;;;;;5005169;28;20049;-83
2022/06/13 07:30:27;;;;;;;6.85;1.80;;;15.50;99.90;;;;;;5007276;28;20046;-83
2022/06/13 07:32:54;;;;;;;6.88;2.28;;;15.60;99.90;;;;;;4990763;28;20053;-84
2022/06/13 07:35:22;;;;;;;7.07;1.83;;;15.60;99.90;;;;;;5025296;28;20076;-83
2022/06/13 07:40:32;;;;;;;5.20;1.75;;;15.70;99.90;;;;;;5024341;28;20049;-86
2022/06/13 07:43:03;;;;;;;6.30;1.70;;;15.70;99.90;;;;;;5023459;28;20045;-85
2022/06/13 07:45:33;;;;;;;4.03;1.60;;;15.70;99.90;;;;;;5024563;28;20048;-86
2022/06/13 07:47:59;;;;;;;5.82;1.80;;;15.80;99.90;;;;;;5009881;28;20482;-85
2022/06/13 07:50:27;;;;;;;8.50;2.00;;;15.90;99.90;;;;;;5027613;28;20080;-88
2022/06/13 07:52:53;;;;;;;6.40;1.60;;;15.90;99.90;;;;;;5029264;28;20041;-87
2022/06/13 07:55:22;;;;;;;5.70;1.70;;;16.10;99.90;;;;;;5010621;28;20087;-88
2022/06/13 07:57:48;;;;;;;5.45;1.60;;;16.20;99.90;;;;;;5013131;28;20048;-86
2022/06/13 08:00:26;;;;;;;7.78;1.90;;;16.30;99.90;;;;;;5010858;28;20397;-86
2022/06/13 08:02:53;;;;;;;5.95;1.77;;;16.50;99.90;;;;;;5029754;28;20080;-82
2022/06/13 08:05:20;;;;;;;6.57;1.88;;;16.60;99.90;;;;;;5031394;28;20394;-86
2022/06/13 08:07:45;;;;;;;7.40;1.70;;;16.60;99.90;;;;;;5009684;28;20128;-86
2022/06/13 08:10:11;;;;;;;6.05;1.83;;;16.60;99.90;;;;;;5026619;28;20144;-86
2022/06/13 08:12:41;;;;;;;7.45;2.00;;;16.50;99.90;;;;;;5010353;28;20053;-84
2022/06/13 08:15:07;;;;;;;8.02;2.20;;;16.40;99.90;;;;;;5026917;28;20041;-85
2022/06/13 08:17:33;;;;;;;6.25;2.10;;;16.50;99.90;;;;;;5028094;28;20056;-88
2022/06/13 08:19:59;;;;;;;7.15;1.83;;;16.50;99.90;;;;;;5016527;28;20038;-94
2022/06/13 08:22:24;;;;;;;6.28;1.70;;;16.60;99.90;;;;;;4992795;28;20057;-86
2022/06/13 08:24:50;;;;;;;7.55;1.80;;;16.60;99.90;;;;;;5012717;28;20045;-90
2022/06/13 08:27:15;;;;;;;5.10;1.80;;;16.60;99.90;;;;;;5026764;28;20463;-86
2022/06/13 08:29:42;;;;;;;8.13;1.77;;;16.50;99.90;;;;;;5003579;28;20399;-85
2022/06/13 08:32:08;;;;;;;7.97;1.80;;;16.50;99.90;;;;;;5009339;28;20049;-83
2022/06/13 08:34:34;;;;;;;6.25;1.67;;;16.50;99.90;;;;;;5024980;28;20048;-82
2022/06/13 08:36:59;;;;;;;7.88;1.80;;;16.60;99.90;;;;;;5026505;28;20116;-86
2022/06/13 08:39:25;;;;;;;5.78;1.70;;;16.80;99.90;;;;;;5025380;28;20559;-84
2022/06/13 08:42:21;;;;;;;7.00;2.03;;;16.90;99.90;;;;;;5010203;28;20045;-85
2022/06/13 08:44:56;;;;;;;9.00;2.30;;;17.00;99.90;;;;;;5023559;28;20065;-86
2022/06/13 08:47:40;;;;;;;7.50;2.10;;;17.00;99.90;;;;;;5008900;28;20080;-88
2022/06/13 08:50:18;;;;;;;5.45;1.40;;;17.10;99.90;;;;;;4993357;28;20045;-90
2022/06/13 08:53:19;;;;;;;6.63;1.48;;;17.20;99.90;;;;;;5009096;28;20084;-91
2022/06/13 08:55:48;;;;;;;7.45;1.80;;;17.40;99.90;;;;;;5024060;28;20049;-86
2022/06/13 08:58:14;;;;;;;5.82;1.60;;;17.40;99.90;;;;;;5025143;28;20034;-87
2022/06/13 09:00:47;;;;;;;5.18;1.58;;;17.20;99.90;;;;;;4992901;28;20071;-84
2022/06/13 09:03:36;;;;;;;5.38;1.50;;;17.10;99.90;;;;;;4993724;28;20045;-86
2022/06/13 09:06:19;;;;;;;5.43;1.40;;;17.00;99.90;;;;;;5009946;28;20111;-89
2022/06/13 09:09:09;;;;;;;6.03;1.55;;;16.80;99.90;;;;;;5009111;28;20406;-84
2022/06/13 09:11:42;;;;;;;6.35;1.45;;;16.60;99.90;;;;;;5025458;28;20124;-86
2022/06/13 09:14:09;;;;;;;8.13;1.80;;;16.60;99.90;;;;;;5025867;28;20041;-89
2022/06/13 09:16:36;;;;;;;6.18;1.80;;;16.50;99.90;;;;;;5027456;28;20057;-92
2022/06/13 09:19:31;;;;;;;6.53;1.58;;;16.60;99.90;;;;;;5009448;28;20038;-84
2022/06/13 09:22:08;;;;;;;7.43;2.03;;;16.80;99.90;;;;;;5027436;28;20453;-87
2022/06/13 09:25:04;;;;;;;6.88;1.13;;;16.90;99.90;;;;;;5023076;28;20084;-88
2022/06/13 09:27:40;;;;;;;5.18;1.10;;;16.90;99.90;;;;;;5023114;28;20061;-89
2022/06/13 09:30:12;;;;;;;4.95;1.05;;;16.80;99.90;;;;;;5009435;28;20047;-85
2022/06/13 09:33:00;;;;;;;4.97;1.30;;;16.80;99.90;;;;;;4991072;28;20037;-90
2022/06/13 09:35:31;;;;;;;8.25;1.80;;;16.90;99.90;;;;;;5026174;28;20037;-89
2022/06/13 09:38:16;;;;;;;;;;;17.10;99.90;;;;;;5025444;28;20517;-89
2022/06/13 09:41:03;;;;;;;5.43;1.13;;;17.20;99.90;;;;;;5008983;28;19940;-86
2022/06/13 09:43:32;;;;;;;8.02;1.40;;;17.20;99.90;;;;;;5027043;28;20049;-88
2022/06/13 09:46:25;;;;;;;3.58;1.00;;;17.30;99.90;;;;;;5009735;28;20507;-88
2022/06/13 09:49:03;;;;;;;5.15;1.10;;;17.30;99.90;;;;;;4990622;28;20107;-87
2022/06/13 09:51:44;;;;;;;7.10;1.67;;;17.30;99.90;;;;;;4992913;28;20059;-86
2022/06/13 09:54:25;;;;;;;3.83;1.30;;;17.30;99.90;;;;;;5009170;28;20490;-87
2022/06/13 09:57:16;;;;;;;6.72;1.42;;;17.20;99.90;;;;;;5022338;28;20500;-89
2022/06/13 09:59:50;;;;;;;7.40;1.50;;;17.10;99.90;;;;;;5008670;28;20046;-86
2022/06/13 10:02:22;;;;;;;8.27;1.77;;;17.00;99.90;;;;;;5005167;28;20132;-90
2022/06/13 10:05:27;;;;;;;8.50;1.70;;;16.90;99.90;;;;;;5008870;28;20111;-91
2022/06/13 10:08:28;;;;;;;6.22;1.50;;;16.80;99.90;;;;;;5000139;28;20053;-83
2022/06/13 10:11:17;;;;;;;6.63;1.40;;;16.90;99.90;;;;;;4965948;28;20085;-87
2022/06/13 10:14:21;;;;;;;8.05;1.50;;;17.20;99.90;;;;;;4967429;28;20057;-86
2022/06/13 10:17:13;;;;;;;5.63;1.30;;;17.50;99.90;;;;;;4984286;28;20104;-88
2022/06/13 10:20:03;;;;;;;6.50;1.50;;;17.60;99.90;;;;;;4961328;28;20107;-92
2022/06/13 10:22:45;;;;;;;6.80;2.03;;;17.50;99.90;;;;;;4983402;28;20058;-88
2022/06/13 10:25:24;;;;;;;6.80;1.52;;;17.10;99.90;;;;;;4966984;28;20089;-86
2022/06/13 10:28:23;;;;;;;7.75;1.50;;;17.00;99.90;;;;;;4948204;28;20058;-86
2022/06/13 10:31:07;;;;;;;8.98;2.00;;;17.10;99.90;;;;;;4982459;28;20399;-87
2022/06/13 10:33:49;;;;;;;9.32;1.63;;;17.20;99.90;;;;;;4967250;28;20097;-88
2022/06/13 10:36:52;;;;;;;5.57;1.23;;;17.30;99.90;;;;;;4954225;28;20046;-90
2022/06/13 10:39:21;;;;;;;7.90;1.60;;;17.50;99.90;;;;;;4982997;28;20465;-88
2022/06/13 10:41:51;;;;;;;6.95;1.58;;;17.60;99.90;;;;;;4967922;28;20221;-85
2022/06/13 10:44:18;;;;;;;10.48;1.98;;;17.80;99.90;;;;;;4967904;28;20046;-86
2022/06/13 10:46:49;;;;;;;6.03;1.50;;;17.90;99.90;;;;;;4976178;28;20057;-83
2022/06/13 10:49:24;;;;;;;6.00;1.40;;;18.00;99.90;;;;;;5005629;28;20049;-86
2022/06/13 10:51:51;;;;;;;4.38;1.40;;;18.00;99.90;;;;;;5013923;28;20049;-84
2022/06/13 10:54:30;;;;;;;6.68;1.75;;;18.10;99.90;;;;;;4999033;28;20068;-86
2022/06/13 10:57:03;;;;;;;7.82;1.70;;;18.00;99.90;;;;;;5012868;28;20055;-86
2022/06/13 10:59:38;;;;;;;9.38;1.90;;;17.60;99.90;;;;;;5013641;28;20400;-87
2022/06/13 11:02:18;;;;;;;8.27;1.80;;;17.10;99.90;;;;;;5022843;28;20049;-84
2022/06/13 11:04:44;;;;;;;7.60;1.60;;;16.80;99.90;;;;;;5014140;28;20048;-83
2022/06/13 11:07:14;;;;;;;5.93;1.50;;;16.60;99.90;;;;;;5031264;28;20046;-84
2022/06/13 11:10:01;;;;;;;7.75;1.67;;;16.50;99.90;;;;;;5029909;28;20030;-86
2022/06/13 11:12:38;;;;;;;9.13;1.80;;;16.40;99.90;;;;;;5011677;28;20139;-86
2022/06/13 11:24:19;;;;;;;7.90;1.83;;;16.50;99.90;;;;;;5020356;28;20113;-91
2022/06/13 11:27:50;;;;;;;6.95;1.90;;;16.60;99.90;;;;;;5028538;28;20052;-87
2022/06/13 11:29:47;;;;;;;7.45;1.67;;;16.60;99.90;;;;;;4991618;28;20069;-87
2022/06/13 11:32:22;;;;;;;7.47;1.88;;;16.70;99.90;;;;;;5029375;28;20037;-90
2022/06/13 11:34:48;;;;;;;6.70;1.85;;;17.00;99.90;;;;;;5011465;28;20577;-89
2022/06/13 11:37:19;;;;;;;8.15;1.58;;;17.20;99.90;;;;;;5012036;28;20128;-88
2022/06/13 11:39:47;;;;;;;5.60;1.30;;;17.20;99.90;;;;;;5011226;28;20045;-85
2022/06/13 11:42:15;;;;;;;8.15;1.70;;;17.10;99.90;;;;;;5010863;28;20063;-85
2022/06/13 11:44:44;;;;;;;7.22;1.45;;;17.20;99.90;;;;;;5004662;28;20484;-89
2022/06/13 11:47:11;;;;;;;7.03;1.67;;;17.10;99.90;;;;;;5012110;28;20121;-89
2022/06/13 11:49:40;;;;;;;6.18;1.30;;;17.20;99.90;;;;;;5011478;28;20042;-88
2022/06/13 11:52:11;;;;;;;7.95;1.70;;;17.20;99.90;;;;;;5011123;28;20463;-88
2022/06/13 11:54:46;;;;;;;9.65;2.20;;;17.20;99.90;;;;;;5014412;28;20042;-89
2022/06/13 11:57:18;;;;;;;7.47;2.00;;;17.20;99.90;;;;;;5034915;28;20049;-84
2022/06/13 12:00:06;;;;;;;7.93;1.70;;;17.30;99.90;;;;;;5018939;28;20042;-86
2022/06/13 12:03:04;;;;;;;8.57;1.77;;;17.20;99.90;;;;;;5015525;28;20072;-87
2022/06/13 12:05:39;;;;;;;7.07;1.50;;;17.30;99.90;;;;;;5028760;28;20072;-87
2022/06/13 12:08:14;;;;;;;7.38;1.65;;;17.30;99.90;;;;;;5036998;28;20064;-91
2022/06/13 12:10:51;;;;;;;8.70;1.65;;;17.30;99.90;;;;;;5020064;28;20382;-89
2022/06/13 12:13:20;;;;;;;8.38;1.75;;;17.30;99.90;;;;;;5033686;28;20045;-90
2022/06/13 12:15:52;;;;;;;7.95;1.60;;;17.40;99.90;;;;;;5017363;28;20064;-87
2022/06/13 12:18:30;;;;;;;9.57;1.80;;;17.40;99.90;;;;;;5000959;28;20111;-90
2022/06/13 12:21:16;;;;;;;9.05;2.10;;;17.30;99.90;;;;;;5013344;28;20076;-86
2022/06/13 12:24:04;;;;;;;9.55;2.42;;;17.40;99.90;;;;;;5016339;28;20414;-89
2022/06/13 12:26:36;;;;;;;8.32;1.70;;;17.40;99.90;;;;;;5016638;28;20045;-88
2022/06/13 12:29:32;;;;;;;6.85;1.80;;;17.50;99.90;;;;;;5004051;28;20049;-94
2022/06/13 12:32:09;;;;;;;8.13;1.77;;;17.70;99.90;;;;;;5000601;28;20079;-87
2022/06/13 12:34:49;;;;;;;7.15;1.75;;;17.70;99.90;;;;;;5029812;28;20033;-89
2022/06/13 12:37:45;;;;;;;8.30;1.77;;;17.70;99.90;;;;;;5013284;28;20048;-96
2022/06/13 12:40:35;;;;;;;5.90;1.65;;;17.70;99.90;;;;;;5031014;28;20041;-86
2022/06/13 12:43:19;;;;;;;6.65;1.70;;;17.70;99.90;;;;;;5026969;28;20502;-91
2022/06/13 12:46:00;;;;;;;8.15;1.70;;;17.70;99.90;;;;;;5010946;28;20080;-87
2022/06/13 12:48:46;;;;;;;7.50;1.95;;;17.70;99.90;;;;;;5027244;28;20053;-89
2022/06/13 12:51:24;;;;;;;8.35;1.85;;;17.60;99.90;;;;;;5019602;28;20042;-90
2022/06/13 12:53:59;;;;;;;8.88;1.80;;;17.60;99.90;;;;;;5022351;28;20065;-88
2022/06/13 12:56:41;;;;;;;7.82;1.75;;;17.50;99.90;;;;;;5016008;28;20116;-88
2022/06/13 12:59:14;;;;;;;8.10;1.60;;;17.60;99.90;;;;;;5014725;28;20053;-89
2022/06/13 13:02:13;;;;;;;7.55;1.77;;;17.60;99.90;;;;;;5017664;28;20041;-88
2022/06/13 13:05:18;;;;;;;6.53;1.70;;;17.80;99.90;;;;;;5018043;28;20041;-87
2022/06/13 13:08:26;;;;;;;8.57;2.35;;;17.90;99.90;;;;;;5026054;28;21188;-92
2022/06/13 13:11:23;;;;;;;7.60;1.83;;;17.90;99.90;;;;;;4956946;28;20047;-94
2022/06/13 13:14:39;;;;;;;6.90;1.92;;;17.80;99.90;;;;;;4955930;28;20449;-89
2022/06/13 13:17:23;;;;;;;8.10;2.15;;;17.70;99.90;;;;;;4901704;29;20044;-89
2022/06/13 13:20:10;;;;;;;6.45;1.60;;;17.60;99.90;;;;;;4919102;29;20064;-89
2022/06/13 13:22:49;;;;;;;7.25;1.70;;;17.50;99.90;;;;;;4892687;29;20083;-87
2022/06/13 13:25:20;;;;;;;7.18;1.60;;;17.80;99.90;;;;;;4893701;29;20063;-90
2022/06/13 13:28:05;;;;;;;7.30;1.70;;;18.00;99.90;;;;;;4892708;29;20113;-88
2022/06/13 13:30:54;;;;;;;7.72;1.70;;;18.10;99.90;;;;;;4908051;29;20143;-88
2022/06/13 13:34:06;;;;;;;8.32;1.70;;;18.10;99.90;;;;;;4891287;29;20048;-88
2022/06/13 13:36:38;;;;;;;6.38;1.55;;;18.10;99.90;;;;;;4886791;29;20053;-90
2022/06/13 13:39:13;;;;;;;8.65;1.70;;;17.90;99.90;;;;;;4871882;29;20048;-91
2022/06/13 13:41:44;;;;;;;7.80;2.05;;;17.90;99.90;;;;;;4873610;29;20414;-87
2022/06/13 13:44:26;;;;;;;10.20;1.75;;;17.90;99.90;;;;;;4874102;29;20064;-90
2022/06/13 13:46:57;;;;;;;6.97;1.73;;;17.90;99.90;;;;;;4893030;28;20056;-86